Time;durP1;ratioP1;P1;durP2;ratioP2;P2;SDS_P1;SDS_P2;PMS_P1;PMS_P2;Temp;Humidity;BMP_temperature;BMP_pressure;BME280_temperature;BME280_humidity;BME280_pressure;Samples;Min_cycle;Max_cycle;Signal;HPM_P1;HPM_P2
2022/08/28 00:00:40;;;;;;;20.97;16.43;;;22.40;89.00;;;;;;5118116;28;20223;-71
2022/08/28 00:03:09;;;;;;;18.20;14.17;;;22.40;89.20;;;;;;5116702;28;20283;-70
2022/08/28 00:05:38;;;;;;;21.00;15.50;;;22.40;90.00;;;;;;5122174;27;20199;-71
2022/08/28 00:08:06;;;;;;;18.83;16.43;;;22.40;89.50;;;;;;5119480;27;20193;-71
2022/08/28 00:10:33;;;;;;;17.43;15.33;;;22.40;89.50;;;;;;5099755;28;20219;-69
2022/08/28 00:13:01;;;;;;;21.53;17.13;;;22.40;89.60;;;;;;5118039;27;20204;-69
2022/08/28 00:15:33;;;;;;;19.70;17.60;;;22.40;89.70;;;;;;5124817;27;20620;-67
2022/08/28 00:18:02;;;;;;;17.40;15.33;;;22.50;89.90;;;;;;5092867;27;20244;-66
2022/08/28 00:20:31;;;;;;;15.57;13.97;;;22.50;89.80;;;;;;5104765;27;20221;-67
2022/08/28 00:22:59;;;;;;;20.63;15.93;;;22.50;89.60;;;;;;5110757;27;20208;-66
2022/08/28 00:25:29;;;;;;;18.00;16.03;;;22.50;89.40;;;;;;5120222;27;20213;-68
2022/08/28 00:28:00;;;;;;;18.40;15.83;;;22.50;89.40;;;;;;5118074;27;20534;-66
2022/08/28 00:30:40;;;;;;;18.00;15.37;;;22.50;89.40;;;;;;5108182;27;20196;-66
2022/08/28 00:33:12;;;;;;;22.33;17.60;;;22.40;89.40;;;;;;5107087;28;20613;-66
2022/08/28 00:35:41;;;;;;;22.17;18.77;;;22.50;89.50;;;;;;5117406;27;20224;-66
2022/08/28 00:38:10;;;;;;;21.80;19.27;;;22.40;89.60;;;;;;5114913;27;20204;-66
2022/08/28 00:40:39;;;;;;;23.90;19.70;;;22.40;89.70;;;;;;5119728;27;20585;-65
2022/08/28 00:43:08;;;;;;;25.70;19.93;;;22.40;89.90;;;;;;5124657;27;20212;-66
2022/08/28 00:45:35;;;;;;;24.70;19.37;;;22.40;90.10;;;;;;5107614;28;20197;-66
2022/08/28 00:48:06;;;;;;;20.07;18.00;;;22.50;90.20;;;;;;5117239;27;20200;-66
2022/08/28 00:53:27;;;;;;;23.00;19.07;;;22.40;90.30;;;;;;5114774;27;20279;-66
2022/08/28 00:56:01;;;;;;;20.33;18.00;;;22.50;90.40;;;;;;5122956;27;20208;-70
2022/08/28 00:58:41;;;;;;;20.20;18.00;;;22.40;90.40;;;;;;5118967;27;20204;-70
2022/08/28 01:01:08;;;;;;;22.03;19.73;;;22.40;90.50;;;;;;5098614;27;20228;-70
2022/08/28 01:03:36;;;;;;;23.90;18.43;;;22.40;90.50;;;;;;5120790;27;20205;-71
2022/08/28 01:06:05;;;;;;;21.93;19.63;;;22.40;90.50;;;;;;5123638;27;20204;-71
2022/08/28 01:08:35;;;;;;;29.03;22.93;;;22.40;90.50;;;;;;5118254;27;20201;-71
2022/08/28 01:11:04;;;;;;;30.07;21.53;;;22.40;90.50;;;;;;5110558;27;20301;-71
2022/08/28 01:13:33;;;;;;;23.90;19.93;;;22.40;90.50;;;;;;5124989;27;20192;-70
2022/08/28 01:16:00;;;;;;;25.30;22.70;;;22.40;90.50;;;;;;5095445;27;20201;-71
2022/08/28 01:18:29;;;;;;;27.40;21.30;;;22.40;90.50;;;;;;5115212;27;20278;-70
2022/08/28 01:21:17;;;;;;;24.83;21.63;;;22.40;90.50;;;;;;5112068;27;20216;-71
2022/08/28 01:23:55;;;;;;;28.50;20.77;;;22.40;90.60;;;;;;5102689;27;20209;-71
2022/08/28 01:26:24;;;;;;;22.30;19.53;;;22.40;90.60;;;;;;5102406;27;20202;-71
2022/08/28 01:28:51;;;;;;;22.10;19.50;;;22.30;90.60;;;;;;5117710;27;20203;-71
2022/08/28 01:31:19;;;;;;;21.60;19.30;;;22.30;90.70;;;;;;5106135;27;20208;-70
2022/08/28 01:33:47;;;;;;;20.80;18.57;;;22.30;90.70;;;;;;5100191;27;20927;-71
2022/08/28 01:36:14;;;;;;;20.97;18.53;;;22.30;90.70;;;;;;5103087;27;20218;-71
2022/08/28 01:38:45;;;;;;;21.93;19.57;;;22.30;90.70;;;;;;5120003;27;20207;-70
2022/08/28 01:41:12;;;;;;;20.97;18.73;;;22.30;90.60;;;;;;5101560;27;20216;-71
2022/08/28 01:43:41;;;;;;;22.37;19.07;;;22.20;90.60;;;;;;5112594;27;20595;-71
2022/08/28 01:46:10;;;;;;;20.57;17.50;;;22.20;90.60;;;;;;5115014;27;20646;-71
2022/08/28 01:48:42;;;;;;;19.77;17.20;;;22.20;90.90;;;;;;5099117;28;20192;-70
2022/08/28 01:51:10;;;;;;;25.37;17.83;;;22.20;90.60;;;;;;5123293;27;20701;-71
2022/08/28 01:53:38;;;;;;;25.83;18.27;;;22.20;90.60;;;;;;5120231;27;20622;-71
2022/08/28 01:56:09;;;;;;;19.73;17.63;;;22.20;90.60;;;;;;5120345;27;20225;-70
2022/08/28 01:58:37;;;;;;;21.10;18.07;;;22.20;90.50;;;;;;5117216;27;20642;-70
2022/08/28 02:01:13;;;;;;;20.27;18.10;;;22.20;90.50;;;;;;5098477;28;20224;-70
2022/08/28 02:03:44;;;;;;;21.10;18.90;;;22.20;90.40;;;;;;5118377;27;20647;-71
2022/08/28 02:06:12;;;;;;;22.73;19.37;;;22.20;90.40;;;;;;5100226;28;20196;-72
2022/08/28 02:08:40;;;;;;;22.63;19.70;;;22.20;90.50;;;;;;5117376;27;20291;-71
2022/08/28 02:11:08;;;;;;;22.63;20.17;;;22.10;90.50;;;;;;5118482;27;20223;-70
2022/08/28 02:13:36;;;;;;;21.23;19.00;;;22.10;90.60;;;;;;5123009;27;20196;-70
2022/08/28 02:16:05;;;;;;;24.77;20.90;;;22.10;90.60;;;;;;5118445;27;20209;-70
2022/08/28 02:18:32;;;;;;;27.53;21.07;;;22.10;90.70;;;;;;5100286;27;20232;-70
2022/08/28 02:21:00;;;;;;;22.93;20.50;;;22.10;90.70;;;;;;5119893;27;20204;-70
2022/08/28 02:23:27;;;;;;;23.27;20.07;;;22.10;90.70;;;;;;5112193;27;20200;-70
2022/08/28 02:25:54;;;;;;;24.87;21.17;;;22.10;90.70;;;;;;5098188;28;20323;-70
2022/08/28 02:28:21;;;;;;;29.13;18.23;;;22.10;90.70;;;;;;5098031;27;20214;-70
2022/08/28 02:30:48;;;;;;;21.87;19.47;;;22.10;90.60;;;;;;5121463;27;20196;-71
2022/08/28 02:33:15;;;;;;;23.90;20.77;;;22.10;90.50;;;;;;5086192;27;20217;-67
2022/08/28 02:35:42;;;;;;;28.27;22.80;;;22.10;90.40;;;;;;5122681;27;20215;-67
2022/08/28 02:38:10;;;;;;;26.67;21.97;;;22.10;90.50;;;;;;5118222;27;20210;-67
2022/08/28 02:40:38;;;;;;;26.30;21.87;;;22.10;90.70;;;;;;5116474;27;20196;-67
2022/08/28 02:43:06;;;;;;;25.40;20.20;;;22.10;90.70;;;;;;5114048;27;20238;-67
2022/08/28 02:45:33;;;;;;;27.33;20.13;;;22.10;90.70;;;;;;5098294;27;20517;-67
2022/08/28 02:48:00;;;;;;;25.23;21.20;;;22.10;90.50;;;;;;5118597;27;20193;-67
2022/08/28 02:50:30;;;;;;;26.80;21.53;;;22.00;90.40;;;;;;5110943;27;20215;-67
2022/08/28 02:52:57;;;;;;;27.87;22.37;;;22.00;90.40;;;;;;5117569;27;20219;-67
2022/08/28 02:55:24;;;;;;;32.67;23.07;;;22.00;90.50;;;;;;5124093;27;20256;-67
2022/08/28 02:57:53;;;;;;;28.30;21.77;;;22.00;90.60;;;;;;5117967;27;20199;-67
2022/08/28 03:00:24;;;;;;;30.10;23.20;;;22.00;90.70;;;;;;5119090;27;20201;-67
2022/08/28 03:02:52;;;;;;;27.07;23.90;;;22.00;90.90;;;;;;5111753;27;20248;-67
2022/08/28 03:05:22;;;;;;;31.77;21.60;;;21.90;91.00;;;;;;5117465;27;20229;-67
2022/08/28 03:07:52;;;;;;;26.00;21.23;;;22.00;91.10;;;;;;5114567;27;20205;-67
2022/08/28 03:10:19;;;;;;;27.23;22.27;;;22.00;91.00;;;;;;5096756;28;20321;-67
2022/08/28 03:12:47;;;;;;;27.97;23.27;;;22.00;91.00;;;;;;5099268;27;20208;-67
2022/08/28 03:15:14;;;;;;;26.73;23.17;;;21.90;91.00;;;;;;5116015;27;20199;-67
2022/08/28 03:17:41;;;;;;;25.77;20.60;;;21.90;91.10;;;;;;5112966;27;20202;-67
2022/08/28 03:20:10;;;;;;;28.37;22.57;;;21.90;91.20;;;;;;5123130;27;20208;-67
2022/08/28 03:25:24;;;;;;;29.47;20.40;;;21.90;91.30;;;;;;5121289;27;20204;-67
2022/08/28 03:27:51;;;;;;;28.23;19.97;;;21.80;91.20;;;;;;5100814;28;20188;-67
2022/08/28 03:30:20;;;;;;;28.47;20.03;;;21.80;91.10;;;;;;5118166;27;20206;-67
2022/08/28 03:32:47;;;;;;;28.93;20.70;;;21.80;90.70;;;;;;5082283;27;20209;-67
2022/08/28 03:35:15;;;;;;;30.23;22.20;;;21.70;90.70;;;;;;5117192;27;20318;-67
2022/08/28 03:37:43;;;;;;;31.27;22.27;;;21.70;90.90;;;;;;5115697;28;20314;-67
2022/08/28 03:40:10;;;;;;;26.40;22.17;;;21.70;91.10;;;;;;5122294;28;20216;-67
2022/08/28 03:42:38;;;;;;;24.67;21.27;;;21.60;91.20;;;;;;5117191;28;20220;-67
2022/08/28 03:45:09;;;;;;;27.03;22.63;;;21.70;91.30;;;;;;5119732;28;20200;-66
2022/08/28 03:47:38;;;;;;;25.73;21.73;;;21.60;91.40;;;;;;5115955;28;20189;-67
2022/08/28 03:50:07;;;;;;;29.60;21.67;;;21.70;91.40;;;;;;5112440;28;20214;-67
2022/08/28 03:52:38;;;;;;;28.83;22.00;;;21.60;91.40;;;;;;5099971;28;20210;-67
2022/08/28 03:55:08;;;;;;;27.27;22.30;;;21.70;91.50;;;;;;5112007;28;20233;-67
2022/08/28 03:57:35;;;;;;;31.47;24.43;;;21.70;91.50;;;;;;5094694;28;20197;-67
2022/08/28 04:00:06;;;;;;;28.53;21.37;;;21.60;91.50;;;;;;5113845;28;20200;-67
2022/08/28 04:02:41;;;;;;;23.53;20.33;;;21.70;91.60;;;;;;5117590;28;20223;-67
2022/08/28 04:05:09;;;;;;;26.23;21.33;;;21.60;91.60;;;;;;5116247;28;20192;-67
2022/08/28 04:07:38;;;;;;;23.00;19.80;;;21.60;91.40;;;;;;5120161;28;20525;-67
2022/08/28 04:10:06;;;;;;;25.57;20.07;;;21.60;91.40;;;;;;5097112;28;20197;-67
2022/08/28 04:12:34;;;;;;;25.87;20.10;;;21.60;91.40;;;;;;5097939;28;20330;-67
2022/08/28 04:15:03;;;;;;;22.03;19.67;;;21.50;91.30;;;;;;5115124;28;20231;-67
2022/08/28 04:17:32;;;;;;;28.63;21.37;;;21.50;91.20;;;;;;5113782;28;20208;-67
2022/08/28 04:19:59;;;;;;;29.07;21.00;;;21.40;91.10;;;;;;5117448;28;20328;-67
2022/08/28 04:22:28;;;;;;;27.63;20.87;;;21.40;91.10;;;;;;5112335;28;20240;-67
2022/08/28 04:24:55;;;;;;;23.10;20.20;;;21.40;91.10;;;;;;5098354;28;20223;-67
2022/08/28 04:27:22;;;;;;;24.20;21.63;;;21.40;91.20;;;;;;5122032;28;20260;-67
2022/08/28 04:29:49;;;;;;;23.97;21.37;;;21.30;91.20;;;;;;5101961;28;20209;-67
2022/08/28 04:32:16;;;;;;;25.00;20.87;;;21.30;91.30;;;;;;5120738;28;20207;-67
2022/08/28 04:34:43;;;;;;;28.10;22.73;;;21.30;91.30;;;;;;5101841;28;20204;-67
2022/08/28 04:37:11;;;;;;;26.73;23.83;;;21.30;91.40;;;;;;5112876;28;20691;-67
2022/08/28 04:39:38;;;;;;;26.77;21.33;;;21.30;91.40;;;;;;5109123;28;20193;-67
2022/08/28 04:42:05;;;;;;;26.13;21.23;;;21.30;91.50;;;;;;5110023;28;20212;-67
2022/08/28 04:44:32;;;;;;;22.27;19.93;;;21.30;91.50;;;;;;5118670;28;20196;-67
2022/08/28 04:46:59;;;;;;;28.03;21.73;;;21.30;91.40;;;;;;5114262;28;20220;-67
2022/08/28 04:49:27;;;;;;;25.20;22.07;;;21.30;91.40;;;;;;5113872;28;20283;-67
2022/08/28 04:51:55;;;;;;;25.77;21.50;;;21.30;91.50;;;;;;5118017;27;20244;-67
2022/08/28 04:54:22;;;;;;;25.20;22.13;;;21.30;91.60;;;;;;5119756;27;20215;-67
2022/08/28 04:56:49;;;;;;;31.37;21.97;;;21.20;91.60;;;;;;5116413;27;20213;-67
2022/08/28 04:59:16;;;;;;;27.37;21.20;;;21.30;91.70;;;;;;5122002;27;20200;-67
2022/08/28 05:01:43;;;;;;;25.07;19.63;;;21.30;91.60;;;;;;5121626;27;20227;-66
2022/08/28 05:04:11;;;;;;;22.87;20.40;;;21.30;91.60;;;;;;5107553;27;20223;-67
2022/08/28 05:06:44;;;;;;;27.10;20.87;;;21.30;91.50;;;;;;5086904;28;20203;-67
2022/08/28 05:09:15;;;;;;;26.23;21.47;;;21.30;91.50;;;;;;5125408;27;20206;-67
2022/08/28 05:11:43;;;;;;;27.43;23.57;;;21.30;91.50;;;;;;5121018;27;20207;-67
2022/08/28 05:14:10;;;;;;;29.37;23.83;;;21.30;91.60;;;;;;5120660;27;20287;-67
2022/08/28 05:16:46;;;;;;;26.80;22.57;;;21.40;91.70;;;;;;5121050;27;20204;-67
2022/08/28 05:19:15;;;;;;;29.27;23.00;;;21.40;91.80;;;;;;5117007;27;20613;-67
2022/08/28 05:21:43;;;;;;;25.30;22.47;;;21.50;91.80;;;;;;5112356;27;20255;-67
2022/08/28 05:24:10;;;;;;;27.70;23.70;;;21.60;91.80;;;;;;5117919;27;20194;-67
2022/08/28 05:26:37;;;;;;;29.07;24.33;;;21.70;91.80;;;;;;5122605;27;20196;-67
2022/08/28 05:29:06;;;;;;;28.47;24.93;;;21.70;91.90;;;;;;5123249;27;20210;-67
2022/08/28 05:31:34;;;;;;;30.83;25.20;;;21.80;91.90;;;;;;5104477;27;20204;-67
2022/08/28 05:34:03;;;;;;;27.17;23.27;;;21.90;91.90;;;;;;5124217;27;20188;-67
2022/08/28 05:36:35;;;;;;;27.90;23.27;;;22.00;91.80;;;;;;5119297;27;20674;-67
2022/08/28 05:39:05;;;;;;;26.40;23.33;;;22.10;91.70;;;;;;5120382;27;20212;-67
2022/08/28 05:41:32;;;;;;;25.70;22.97;;;22.20;91.60;;;;;;5124208;27;20197;-67
2022/08/28 05:44:02;;;;;;;26.60;23.00;;;22.40;91.60;;;;;;5120093;27;20201;-67
2022/08/28 05:46:30;;;;;;;28.30;23.53;;;22.50;91.50;;;;;;5109523;27;20259;-67
2022/08/28 05:48:59;;;;;;;26.37;23.37;;;22.50;91.40;;;;;;5120302;27;20224;-68
2022/08/28 05:51:27;;;;;;;27.63;23.57;;;22.60;91.30;;;;;;5117589;27;20653;-68
2022/08/28 05:53:56;;;;;;;26.70;23.20;;;22.80;91.20;;;;;;5119145;27;20540;-68
2022/08/28 05:56:28;;;;;;;28.07;23.83;;;22.90;91.10;;;;;;5119766;27;20496;-68
2022/08/28 05:58:58;;;;;;;27.00;22.73;;;23.00;91.00;;;;;;5115747;27;20205;-68
2022/08/28 06:01:28;;;;;;;29.27;22.73;;;23.10;90.90;;;;;;5117749;27;20199;-68
2022/08/28 06:03:58;;;;;;;26.37;21.73;;;23.20;90.80;;;;;;5116192;27;20235;-68
2022/08/28 06:06:28;;;;;;;24.83;21.43;;;23.30;90.60;;;;;;5115492;27;20211;-68
2022/08/28 06:09:01;;;;;;;25.53;20.47;;;23.50;90.40;;;;;;5117757;27;20209;-68
2022/08/28 06:11:29;;;;;;;23.13;20.63;;;23.60;90.10;;;;;;5110000;27;20192;-68
2022/08/28 06:14:00;;;;;;;28.43;20.47;;;23.70;89.60;;;;;;5101310;27;20197;-68
2022/08/28 06:16:30;;;;;;;22.83;20.27;;;23.90;89.20;;;;;;5119202;27;20671;-68
2022/08/28 06:18:59;;;;;;;22.83;20.47;;;24.00;88.60;;;;;;5118366;27;20259;-68
2022/08/28 06:21:27;;;;;;;22.47;18.73;;;24.20;87.80;;;;;;5117222;27;20200;-68
2022/08/28 06:23:55;;;;;;;22.47;20.10;;;24.30;87.20;;;;;;5121535;27;20751;-68
2022/08/28 06:26:22;;;;;;;24.57;19.27;;;24.50;86.80;;;;;;5100627;28;20196;-68
2022/08/28 06:28:52;;;;;;;23.60;19.20;;;24.60;86.20;;;;;;5121960;27;20215;-68
2022/08/28 06:31:19;;;;;;;24.40;19.07;;;24.70;85.60;;;;;;5098426;27;20195;-68
2022/08/28 06:33:53;;;;;;;22.40;18.97;;;24.80;85.10;;;;;;5123376;27;20236;-68
2022/08/28 06:36:20;;;;;;;20.80;18.30;;;25.00;84.70;;;;;;5108619;28;20706;-68
2022/08/28 06:38:48;;;;;;;23.27;19.17;;;25.10;84.20;;;;;;5117728;27;20211;-68
2022/08/28 06:41:15;;;;;;;24.30;17.77;;;25.20;83.90;;;;;;5118908;27;20198;-68
2022/08/28 06:43:42;;;;;;;19.90;17.80;;;25.20;83.30;;;;;;5118008;27;20229;-68
2022/08/28 06:46:09;;;;;;;20.43;16.50;;;25.30;83.00;;;;;;5117361;27;20274;-68
2022/08/28 06:48:37;;;;;;;19.70;16.60;;;25.40;82.60;;;;;;5122365;27;20628;-69
2022/08/28 06:51:09;;;;;;;20.83;17.17;;;25.50;82.40;;;;;;5101116;28;20209;-68
2022/08/28 06:53:38;;;;;;;18.37;16.40;;;25.60;81.90;;;;;;5120463;27;20208;-68
2022/08/28 06:56:10;;;;;;;20.67;15.90;;;25.60;81.40;;;;;;5098580;28;20199;-68
2022/08/28 06:58:42;;;;;;;19.93;17.83;;;25.70;80.60;;;;;;5122722;27;20223;-69
2022/08/28 07:01:25;;;;;;;21.07;16.43;;;25.90;80.60;;;;;;5119572;27;20206;-68
2022/08/28 07:03:55;;;;;;;21.27;16.33;;;25.90;80.40;;;;;;5089514;27;20285;-68
2022/08/28 07:06:23;;;;;;;23.43;18.50;;;26.10;80.10;;;;;;5102881;28;20614;-68
2022/08/28 07:08:50;;;;;;;18.97;16.97;;;26.20;79.60;;;;;;5101514;28;20191;-68
2022/08/28 07:11:24;;;;;;;20.97;17.07;;;26.30;79.40;;;;;;5110112;27;20209;-68
2022/08/28 07:13:53;;;;;;;19.43;16.03;;;26.40;79.00;;;;;;5096538;28;20231;-68
2022/08/28 07:16:23;;;;;;;20.23;17.23;;;26.50;78.50;;;;;;5122598;27;20516;-68
2022/08/28 07:18:51;;;;;;;23.33;16.33;;;26.70;78.10;;;;;;5093709;28;20347;-68
2022/08/28 07:21:19;;;;;;;18.97;16.23;;;26.80;77.80;;;;;;5116411;27;20805;-68
2022/08/28 07:23:47;;;;;;;20.07;16.30;;;26.90;77.30;;;;;;5121618;27;20226;-68
2022/08/28 07:26:21;;;;;;;19.00;14.87;;;27.00;75.90;;;;;;5104829;27;20223;-68
2022/08/28 07:28:49;;;;;;;18.63;16.60;;;27.10;75.10;;;;;;5119432;27;20621;-68
2022/08/28 07:31:19;;;;;;;18.83;15.60;;;27.20;74.90;;;;;;5118595;27;20219;-68
2022/08/28 07:33:47;;;;;;;16.50;13.60;;;27.30;74.40;;;;;;5113989;28;20204;-68
2022/08/28 07:36:24;;;;;;;17.53;14.63;;;27.40;73.70;;;;;;5116264;27;20263;-68
2022/08/28 07:38:58;;;;;;;18.60;14.47;;;27.40;72.50;;;;;;5117849;28;20648;-69
2022/08/28 07:41:30;;;;;;;19.50;14.70;;;27.40;72.70;;;;;;5119701;28;20704;-68
2022/08/28 07:46:44;;;;;;;16.90;15.20;;;27.60;73.00;;;;;;5116218;28;20208;-68
2022/08/28 07:49:15;;;;;;;17.10;14.33;;;27.70;72.10;;;;;;5103188;28;20207;-68
2022/08/28 07:51:43;;;;;;;18.20;14.73;;;27.80;71.70;;;;;;5118315;28;20636;-69
2022/08/28 07:54:13;;;;;;;21.53;15.10;;;27.90;70.40;;;;;;5114798;28;20266;-68
2022/08/28 07:56:45;;;;;;;17.17;14.17;;;27.90;70.70;;;;;;5120238;28;20215;-69
2022/08/28 07:59:13;;;;;;;14.30;13.00;;;27.90;71.00;;;;;;5110625;28;20220;-68
2022/08/28 08:01:45;;;;;;;14.17;12.33;;;28.00;71.00;;;;;;5112736;28;20205;-68
2022/08/28 08:04:14;;;;;;;13.70;12.33;;;28.20;70.40;;;;;;5099408;28;20233;-69
2022/08/28 08:06:42;;;;;;;13.27;12.07;;;28.30;69.20;;;;;;5113562;28;20197;-69
2022/08/28 08:09:12;;;;;;;13.13;11.50;;;28.30;68.70;;;;;;5117633;28;20276;-69
2022/08/28 08:11:39;;;;;;;15.80;13.17;;;28.40;69.00;;;;;;5102776;28;20543;-69
2022/08/28 08:14:07;;;;;;;16.43;13.53;;;28.50;69.10;;;;;;5121784;28;20207;-68
2022/08/28 08:16:37;;;;;;;14.43;12.27;;;28.70;68.90;;;;;;5107038;28;20275;-68
2022/08/28 08:19:08;;;;;;;14.73;12.33;;;28.80;68.80;;;;;;5113218;28;20242;-67
2022/08/28 08:21:36;;;;;;;12.37;10.90;;;28.90;67.60;;;;;;5117871;28;20196;-67
2022/08/28 08:24:03;;;;;;;11.47;10.37;;;29.00;66.40;;;;;;5114804;28;20224;-68
2022/08/28 08:26:31;;;;;;;11.97;10.77;;;29.10;65.90;;;;;;5115031;27;20197;-68
2022/08/28 08:28:59;;;;;;;12.50;10.43;;;29.20;65.50;;;;;;5119239;27;20192;-68
2022/08/28 08:31:31;;;;;;;12.93;8.30;;;29.20;65.10;;;;;;5122011;27;20196;-68
2022/08/28 08:34:00;;;;;;;12.67;11.33;;;29.30;64.30;;;;;;5120711;27;20630;-68
2022/08/28 08:36:29;;;;;;;14.43;12.60;;;29.50;64.80;;;;;;5104920;28;20271;-68
2022/08/28 08:38:57;;;;;;;14.97;12.20;;;29.60;64.50;;;;;;5127758;27;20284;-68
2022/08/28 08:41:47;;;;;;;17.60;13.07;;;29.80;63.80;;;;;;5115927;27;20545;-68
2022/08/28 08:44:28;;;;;;;15.77;10.27;;;29.90;62.50;;;;;;5114690;27;20213;-68
2022/08/28 08:47:05;;;;;;;9.70;8.77;;;29.90;62.20;;;;;;5098357;27;20641;-67
2022/08/28 08:49:59;;;;;;;11.40;9.33;;;29.90;62.30;;;;;;5109365;27;20200;-68
2022/08/28 08:52:46;;;;;;;13.53;9.73;;;30.00;62.20;;;;;;5118072;27;20193;-68
2022/08/28 08:55:24;;;;;;;8.77;7.87;;;30.10;62.00;;;;;;5123431;27;20208;-68
2022/08/28 08:58:05;;;;;;;6.53;5.87;;;30.10;60.80;;;;;;5119570;27;20196;-68
2022/08/28 09:00:38;;;;;;;10.00;8.90;;;30.10;60.20;;;;;;5102251;27;20200;-68
2022/08/28 09:03:13;;;;;;;12.23;9.03;;;30.10;59.60;;;;;;5122273;27;20319;-67
2022/08/28 09:06:02;;;;;;;13.17;8.67;;;30.00;60.00;;;;;;5119187;27;20200;-67
2022/08/28 09:08:31;;;;;;;10.23;7.67;;;29.90;60.00;;;;;;5111732;27;20563;-68
2022/08/28 09:11:12;;;;;;;9.23;7.33;;;29.90;59.90;;;;;;5090435;27;20204;-67
2022/08/28 09:13:55;;;;;;;6.23;5.43;;;30.00;59.00;;;;;;5121902;27;20301;-67
2022/08/28 09:16:37;;;;;;;6.53;5.73;;;30.00;58.50;;;;;;5122096;27;20207;-67
2022/08/28 09:19:08;;;;;;;7.07;6.13;;;30.00;58.50;;;;;;5076811;28;20236;-67
2022/08/28 09:21:40;;;;;;;8.20;6.77;;;30.00;57.60;;;;;;5082136;28;20193;-67
2022/08/28 09:24:34;;;;;;;11.20;6.30;;;30.10;57.60;;;;;;5067231;28;20652;-67
2022/08/28 09:27:04;;;;;;;5.90;5.40;;;30.10;57.90;;;;;;5075427;28;20208;-67
2022/08/28 09:29:38;;;;;;;5.80;5.20;;;30.10;57.70;;;;;;5095016;28;20216;-67
2022/08/28 09:32:29;;;;;;;7.33;6.50;;;30.20;58.30;;;;;;5077587;28;20202;-67
2022/08/28 09:35:22;;;;;;;4.60;4.20;;;30.40;57.80;;;;;;5077299;28;20216;-67
2022/08/28 09:37:49;;;;;;;5.27;4.50;;;30.50;56.40;;;;;;5080305;28;20485;-67
2022/08/28 09:43:25;;;;;;;7.60;4.47;;;30.60;55.80;;;;;;5077864;28;20197;-67
2022/08/28 09:43:26;;;;;;;5.80;4.13;;;30.60;55.60;;;;;;5076736;28;20571;-67
2022/08/28 09:45:58;;;;;;;6.63;4.33;;;30.60;55.00;;;;;;5083726;28;20189;-67
2022/08/28 09:48:31;;;;;;;4.13;3.83;;;30.80;55.70;;;;;;5075049;28;20211;-67
2022/08/28 09:51:04;;;;;;;4.57;4.17;;;30.90;55.50;;;;;;5075167;28;20224;-67
2022/08/28 09:53:34;;;;;;;4.90;4.40;;;31.00;55.30;;;;;;5078330;28;20539;-66
2022/08/28 09:56:16;;;;;;;7.13;4.33;;;31.10;54.60;;;;;;5097415;28;20205;-67
2022/08/28 09:59:09;;;;;;;6.77;4.27;;;31.30;54.40;;;;;;5081341;28;20290;-67
2022/08/28 10:01:48;;;;;;;6.83;4.20;;;31.40;54.80;;;;;;5070442;28;20209;-67
2022/08/28 10:04:49;;;;;;;6.23;4.43;;;31.50;54.60;;;;;;5078153;28;20236;-66
2022/08/28 10:07:35;;;;;;;4.87;4.30;;;31.60;52.80;;;;;;5078356;28;20800;-66
2022/08/28 10:10:29;;;;;;;4.77;4.20;;;31.60;53.30;;;;;;5079085;28;20197;-66
2022/08/28 10:13:03;;;;;;;5.83;4.70;;;31.70;54.50;;;;;;5069907;28;20207;-66
2022/08/28 10:16:07;;;;;;;5.63;4.77;;;31.80;54.40;;;;;;5070942;28;20204;-66
2022/08/28 10:18:57;;;;;;;6.73;4.63;;;31.90;54.30;;;;;;5097092;27;20254;-66
2022/08/28 10:21:41;;;;;;;5.07;4.57;;;32.00;54.40;;;;;;5118357;27;20215;-66
2022/08/28 10:24:31;;;;;;;4.77;4.30;;;32.20;53.60;;;;;;5122474;27;20223;-66
2022/08/28 10:27:20;;;;;;;5.97;5.37;;;32.20;52.70;;;;;;5119123;27;20634;-66
2022/08/28 10:30:06;;;;;;;4.90;4.37;;;32.20;51.50;;;;;;5118056;27;20193;-66
2022/08/28 10:32:41;;;;;;;6.80;4.13;;;32.00;53.00;;;;;;5115958;27;20205;-66
2022/08/28 10:35:13;;;;;;;4.97;4.47;;;32.00;54.10;;;;;;5117015;27;20211;-66
2022/08/28 10:38:07;;;;;;;5.23;4.23;;;32.20;54.40;;;;;;5121631;27;20208;-66
2022/08/28 10:40:55;;;;;;;5.17;4.47;;;32.20;53.60;;;;;;5118901;27;20215;-66
2022/08/28 10:43:33;;;;;;;4.87;4.47;;;32.40;53.50;;;;;;5104211;28;20216;-66
2022/08/28 10:46:04;;;;;;;4.90;4.50;;;32.50;53.10;;;;;;5122661;27;20196;-66
2022/08/28 10:48:41;;;;;;;10.20;4.57;;;32.70;53.20;;;;;;5118512;27;20206;-66
2022/08/28 10:51:40;;;;;;;5.07;3.90;;;32.70;53.20;;;;;;5118249;27;20237;-66
2022/08/28 10:54:22;;;;;;;5.30;4.43;;;32.90;52.90;;;;;;5114681;27;20211;-66
2022/08/28 10:57:07;;;;;;;4.77;3.67;;;32.90;53.20;;;;;;5107458;27;20209;-66
2022/08/28 10:59:36;;;;;;;6.17;4.60;;;33.00;53.20;;;;;;5119138;27;20218;-66
2022/08/28 11:02:12;;;;;;;5.93;4.20;;;33.10;52.50;;;;;;5120144;27;20312;-66
2022/08/28 11:04:40;;;;;;;5.40;4.73;;;33.20;52.60;;;;;;5120098;27;20286;-66
2022/08/28 11:07:11;;;;;;;6.30;4.23;;;33.20;51.50;;;;;;5119868;27;20197;-66
2022/08/28 11:09:44;;;;;;;4.80;4.27;;;33.20;51.30;;;;;;5103322;27;20200;-66
2022/08/28 11:12:14;;;;;;;4.23;3.83;;;33.20;52.00;;;;;;5117000;27;20196;-66
2022/08/28 11:14:44;;;;;;;7.30;3.87;;;33.10;52.90;;;;;;5115700;27;20211;-66
2022/08/28 11:17:32;;;;;;;5.50;4.57;;;33.20;52.10;;;;;;5114044;27;20199;-66
2022/08/28 11:20:05;;;;;;;6.13;4.13;;;33.20;52.00;;;;;;5114513;27;20233;-66
2022/08/28 11:22:54;;;;;;;4.97;3.50;;;33.20;51.40;;;;;;5112538;27;20246;-66
2022/08/28 11:25:50;;;;;;;7.43;4.20;;;33.20;51.20;;;;;;5110441;27;20204;-66
2022/08/28 11:28:42;;;;;;;4.03;3.70;;;33.20;50.90;;;;;;5116586;27;20758;-66
2022/08/28 11:31:09;;;;;;;4.93;4.43;;;33.20;50.70;;;;;;5101287;28;20219;-66
2022/08/28 11:33:48;;;;;;;5.13;3.97;;;33.10;51.10;;;;;;5120127;27;20195;-66
2022/08/28 11:36:18;;;;;;;3.73;3.43;;;33.00;51.90;;;;;;5118214;27;20215;-67
2022/08/28 11:38:54;;;;;;;6.00;3.90;;;33.10;51.90;;;;;;5113018;28;20208;-66
2022/08/28 11:41:27;;;;;;;8.17;3.80;;;33.10;51.50;;;;;;5115073;28;20195;-66
2022/08/28 11:44:12;;;;;;;6.90;3.63;;;33.20;51.00;;;;;;5117255;28;20223;-66
2022/08/28 11:46:42;;;;;;;4.93;3.60;;;33.20;50.90;;;;;;5123538;28;20606;-66
2022/08/28 11:49:31;;;;;;;4.13;3.73;;;33.30;50.70;;;;;;5100346;28;20574;-66
2022/08/28 11:52:05;;;;;;;3.57;3.20;;;33.10;51.20;;;;;;5122409;28;20537;-65
2022/08/28 11:55:00;;;;;;;3.80;3.50;;;33.10;50.40;;;;;;5114184;28;20819;-65
2022/08/28 11:57:48;;;;;;;4.20;3.73;;;33.00;50.60;;;;;;5104522;28;20197;-66
2022/08/28 12:00:37;;;;;;;5.23;3.70;;;32.90;51.20;;;;;;5096305;28;20196;-65
2022/08/28 12:03:23;;;;;;;6.10;3.77;;;32.90;50.40;;;;;;5086830;27;20200;-66
2022/08/28 12:05:54;;;;;;;4.13;3.70;;;32.90;50.80;;;;;;5115588;27;20246;-66
2022/08/28 12:08:43;;;;;;;3.47;3.17;;;32.90;50.90;;;;;;5119450;27;20200;-66
2022/08/28 12:11:39;;;;;;;4.30;3.27;;;32.90;51.50;;;;;;5126292;27;20207;-66
2022/08/28 12:14:25;;;;;;;5.70;3.50;;;32.80;52.00;;;;;;5119446;27;20283;-66
2022/08/28 12:16:58;;;;;;;4.70;3.57;;;32.70;52.30;;;;;;5126468;27;20515;-66
2022/08/28 12:19:51;;;;;;;3.60;3.30;;;32.60;52.50;;;;;;5103642;27;20223;-66
2022/08/28 12:22:48;;;;;;;3.77;2.80;;;32.60;52.40;;;;;;5116236;27;20238;-65
2022/08/28 12:25:32;;;;;;;4.50;3.40;;;32.60;51.60;;;;;;5122948;27;20244;-65
2022/08/28 12:28:06;;;;;;;4.70;3.20;;;32.60;52.10;;;;;;5120041;27;20203;-65
2022/08/28 12:30:56;;;;;;;4.07;3.67;;;32.60;51.00;;;;;;5119873;27;20200;-65
2022/08/28 12:33:33;;;;;;;3.83;3.53;;;32.60;51.60;;;;;;5119735;27;20633;-65
2022/08/28 12:36:03;;;;;;;3.80;3.20;;;32.70;49.70;;;;;;5105714;27;20214;-65
2022/08/28 12:38:32;;;;;;;4.83;3.40;;;32.60;49.80;;;;;;5121507;27;20226;-65
2022/08/28 12:41:01;;;;;;;3.13;2.93;;;32.60;50.40;;;;;;5122345;27;20197;-65
2022/08/28 12:43:37;;;;;;;5.03;3.43;;;32.60;50.60;;;;;;5088395;27;20624;-65
2022/08/28 12:46:25;;;;;;;4.80;3.63;;;32.60;50.00;;;;;;5098318;28;20214;-65
2022/08/28 12:48:58;;;;;;;3.47;3.17;;;32.60;50.50;;;;;;5115646;27;20232;-65
2022/08/28 12:51:33;;;;;;;3.53;3.23;;;32.60;50.20;;;;;;5119527;27;20189;-65
2022/08/28 12:54:07;;;;;;;5.60;3.30;;;32.60;50.70;;;;;;5121524;27;20207;-65
2022/08/28 12:56:37;;;;;;;4.30;3.13;;;32.60;50.40;;;;;;5118704;27;20200;-65
2022/08/28 12:59:23;;;;;;;3.73;3.30;;;32.60;50.60;;;;;;5124503;27;21446;-65
2022/08/28 13:01:59;;;;;;;4.10;3.70;;;32.70;49.70;;;;;;5118793;27;20200;-65
2022/08/28 13:04:32;;;;;;;4.03;3.30;;;32.70;49.40;;;;;;5114410;27;20229;-65
2022/08/28 13:07:06;;;;;;;3.40;3.10;;;32.60;49.80;;;;;;5120341;27;20569;-65
2022/08/28 13:09:34;;;;;;;3.83;3.53;;;32.60;51.30;;;;;;5117316;27;20210;-65